Time;durP1;ratioP1;P1;durP2;ratioP2;P2;SDS_P1;SDS_P2;PMS_P1;PMS_P2;Temp;Humidity;BMP_temperature;BMP_pressure;BME280_temperature;BME280_humidity;BME280_pressure;Samples;Min_cycle;Max_cycle;Signal;HPM_P1;HPM_P2
2023/07/19 00:04:43;;;;;;;6.63;4.07;;;;;;;;;;10334129;28;20086;-64
2023/07/19 00:09:41;;;;;;;5.20;4.70;;;;;;;;;;10332648;28;20078;-64
2023/07/19 00:14:39;;;;;;;7.20;3.72;;;;;;;;;;10332826;28;20095;-64
2023/07/19 00:19:37;;;;;;;6.95;4.70;;;;;;;;;;10334530;28;20517;-65
2023/07/19 00:24:37;;;;;;;8.82;4.38;;;;;;;;;;10332328;28;20509;-64
2023/07/19 00:29:35;;;;;;;9.65;4.85;;;;;;;;;;10331582;28;20072;-64
2023/07/19 00:34:34;;;;;;;5.93;4.18;;;;;;;;;;10334350;28;20162;-63
2023/07/19 00:39:33;;;;;;;14.02;5.95;;;;;;;;;;10314991;28;20052;-63
2023/07/19 00:44:32;;;;;;;9.70;5.07;;;;;;;;;;10332149;28;20560;-64
2023/07/19 00:49:32;;;;;;;7.10;4.90;;;;;;;;;;10310843;28;20429;-63
2023/07/19 00:54:31;;;;;;;5.68;4.72;;;;;;;;;;10327650;28;20066;-64
2023/07/19 00:59:31;;;;;;;6.78;4.03;;;;;;;;;;10312475;28;20046;-64
2023/07/19 01:04:29;;;;;;;5.18;4.65;;;;;;;;;;10317170;28;20072;-63
2023/07/19 01:09:30;;;;;;;9.40;4.82;;;;;;;;;;10330998;28;20075;-64
2023/07/19 01:14:28;;;;;;;6.25;4.60;;;;;;;;;;10329352;28;20083;-64
2023/07/19 01:19:27;;;;;;;9.40;5.22;;;;;;;;;;10330728;28;20091;-64
2023/07/19 01:24:27;;;;;;;8.57;4.30;;;;;;;;;;10329993;28;20068;-63
2023/07/19 01:29:25;;;;;;;6.47;4.63;;;;;;;;;;10327274;28;20087;-64
2023/07/19 01:34:24;;;;;;;10.48;4.78;;;;;;;;;;10311559;28;20086;-64
2023/07/19 01:39:23;;;;;;;5.90;5.15;;;;;;;;;;10330211;28;20063;-64
2023/07/19 01:44:22;;;;;;;6.03;4.38;;;;;;;;;;10330030;28;20068;-64
2023/07/19 01:49:24;;;;;;;6.63;5.30;;;;;;;;;;10330328;28;20169;-64
2023/07/19 01:54:22;;;;;;;9.90;6.20;;;;;;;;;;10335154;28;20071;-64
2023/07/19 01:59:21;;;;;;;11.52;7.53;;;;;;;;;;10336232;28;20067;-65
2023/07/19 02:04:20;;;;;;;13.48;9.23;;;;;;;;;;10324689;28;20095;-64
2023/07/19 02:09:18;;;;;;;11.88;8.23;;;;;;;;;;10338682;28;20536;-63
2023/07/19 02:14:16;;;;;;;8.43;6.70;;;;;;;;;;10336832;28;20076;-64
2023/07/19 02:19:16;;;;;;;11.68;8.90;;;;;;;;;;10336605;28;20071;-64
2023/07/19 02:24:16;;;;;;;9.40;8.05;;;;;;;;;;10337974;28;20505;-63
2023/07/19 02:29:15;;;;;;;7.63;5.90;;;;;;;;;;10336828;28;20543;-64
2023/07/19 02:34:14;;;;;;;10.50;6.55;;;;;;;;;;10319879;28;20048;-64
2023/07/19 02:39:15;;;;;;;14.65;5.95;;;;;;;;;;10336167;28;20072;-63
2023/07/19 02:44:15;;;;;;;6.18;5.38;;;;;;;;;;10324670;28;20072;-64
2023/07/19 02:49:13;;;;;;;9.73;4.32;;;;;;;;;;10339930;28;20547;-64
2023/07/19 02:54:11;;;;;;;8.68;5.18;;;;;;;;;;10329835;28;20091;-64
2023/07/19 02:59:11;;;;;;;15.00;5.70;;;;;;;;;;10337712;28;20071;-64
2023/07/19 03:04:12;;;;;;;7.35;5.22;;;;;;;;;;10335194;28;20072;-64
2023/07/19 03:09:12;;;;;;;5.72;4.38;;;;;;;;;;10335071;28;20425;-64
2023/07/19 03:14:11;;;;;;;8.15;4.65;;;;;;;;;;10334385;28;20075;-64
2023/07/19 03:19:10;;;;;;;7.78;4.25;;;;;;;;;;10334166;28;20052;-63
2023/07/19 03:24:12;;;;;;;6.28;4.85;;;;;;;;;;10316093;28;20079;-64
2023/07/19 03:29:10;;;;;;;23.90;6.43;;;;;;;;;;10333721;28;20067;-64
2023/07/19 03:34:09;;;;;;;9.52;4.97;;;;;;;;;;10337869;28;20076;-64
2023/07/19 03:39:08;;;;;;;10.10;4.50;;;;;;;;;;10317045;28;20068;-65
2023/07/19 03:44:07;;;;;;;7.85;4.80;;;;;;;;;;10316454;28;20079;-64
2023/07/19 03:49:05;;;;;;;6.05;5.00;;;;;;;;;;10328281;28;20092;-64
2023/07/19 03:54:05;;;;;;;7.45;5.28;;;;;;;;;;10334728;28;20067;-64
2023/07/19 03:59:04;;;;;;;8.52;5.35;;;;;;;;;;10324923;28;20082;-64
2023/07/19 04:04:03;;;;;;;15.48;7.50;;;;;;;;;;10323294;28;20075;-64
2023/07/19 04:09:01;;;;;;;14.15;8.43;;;;;;;;;;10336094;28;20068;-64
2023/07/19 04:14:01;;;;;;;18.73;8.75;;;;;;;;;;10316389;28;20052;-64
2023/07/19 04:19:00;;;;;;;11.88;6.65;;;;;;;;;;10320505;28;20551;-64
2023/07/19 04:23:58;;;;;;;10.32;6.50;;;;;;;;;;10317234;28;20080;-64
2023/07/19 04:28:58;;;;;;;10.82;6.80;;;;;;;;;;10316981;28;20731;-64
2023/07/19 04:33:59;;;;;;;23.88;9.30;;;;;;;;;;10329745;28;20840;-64
2023/07/19 04:38:58;;;;;;;7.88;5.75;;;;;;;;;;10328198;28;20045;-63
2023/07/19 04:43:57;;;;;;;10.95;4.93;;;;;;;;;;10333430;28;20602;-64
2023/07/19 04:48:55;;;;;;;13.20;5.53;;;;;;;;;;10332671;28;20528;-64
2023/07/19 04:53:55;;;;;;;8.00;4.60;;;;;;;;;;10337517;28;20080;-64
2023/07/19 04:58:53;;;;;;;9.45;4.55;;;;;;;;;;10337331;28;20040;-64
2023/07/19 05:03:52;;;;;;;5.88;4.63;;;;;;;;;;10342045;28;20067;-63
2023/07/19 05:08:50;;;;;;;15.88;14.38;;;;;;;;;;10338343;28;20070;-64
2023/07/19 05:13:49;;;;;;;13.02;11.65;;;;;;;;;;10332994;28;20043;-64
2023/07/19 05:18:48;;;;;;;11.68;5.28;;;;;;;;;;10330382;28;20076;-65
2023/07/19 05:23:48;;;;;;;11.60;5.63;;;;;;;;;;10332475;28;20076;-65
2023/07/19 05:28:46;;;;;;;33.58;30.23;;;;;;;;;;10329547;28;20075;-65
2023/07/19 05:33:46;;;;;;;10.85;6.38;;;;;;;;;;10326222;28;20075;-66
2023/07/19 05:38:44;;;;;;;36.85;32.97;;;;;;;;;;10327221;28;20067;-65
2023/07/19 05:43:42;;;;;;;6.15;4.88;;;;;;;;;;10331417;28;20072;-66
2023/07/19 05:48:43;;;;;;;9.75;5.00;;;;;;;;;;10324637;28;20516;-65
2023/07/19 05:53:43;;;;;;;16.25;6.70;;;;;;;;;;10327231;28;20071;-65
2023/07/19 05:58:42;;;;;;;9.02;5.65;;;;;;;;;;10321274;28;20524;-65
2023/07/19 06:03:40;;;;;;;14.30;7.53;;;;;;;;;;10331101;28;20456;-64
2023/07/19 06:08:40;;;;;;;19.08;8.43;;;;;;;;;;10328835;28;20645;-65
2023/07/19 06:13:40;;;;;;;13.77;8.68;;;;;;;;;;10324137;28;20067;-64
2023/07/19 06:18:38;;;;;;;14.57;6.72;;;;;;;;;;10328775;28;20139;-64
2023/07/19 06:23:36;;;;;;;34.17;30.70;;;;;;;;;;10327571;28;20095;-65
2023/07/19 06:28:35;;;;;;;15.70;7.47;;;;;;;;;;10324072;28;20068;-65
2023/07/19 06:33:34;;;;;;;12.63;6.10;;;;;;;;;;10324405;28;20082;-65
2023/07/19 06:38:36;;;;;;;10.73;6.38;;;;;;;;;;10324331;28;20063;-64
2023/07/19 06:43:35;;;;;;;10.00;7.35;;;;;;;;;;10328812;28;20084;-64
2023/07/19 06:48:35;;;;;;;8.65;7.03;;;;;;;;;;10334383;28;20092;-64
2023/07/19 06:53:33;;;;;;;8.45;5.65;;;;;;;;;;10333996;28;20049;-64
2023/07/19 06:58:32;;;;;;;9.93;6.72;;;;;;;;;;10330328;28;20087;-65
2023/07/19 07:03:30;;;;;;;10.70;7.88;;;;;;;;;;10335122;28;20083;-65
2023/07/19 07:08:30;;;;;;;5.82;5.25;;;;;;;;;;10335376;28;20540;-65
2023/07/19 07:13:28;;;;;;;10.00;5.82;;;;;;;;;;10336015;28;20087;-65
2023/07/19 07:18:26;;;;;;;8.63;5.22;;;;;;;;;;10332382;28;20425;-65
2023/07/19 07:23:24;;;;;;;9.07;5.10;;;;;;;;;;10327613;28;20304;-66
2023/07/19 07:28:24;;;;;;;10.57;5.25;;;;;;;;;;10337710;28;20101;-65
2023/07/19 07:33:22;;;;;;;7.70;6.07;;;;;;;;;;10328734;28;20087;-65
2023/07/19 07:38:20;;;;;;;5.88;5.05;;;;;;;;;;10332197;28;20060;-65
2023/07/19 07:43:19;;;;;;;10.70;5.70;;;;;;;;;;10333538;28;20080;-64
2023/07/19 07:48:18;;;;;;;10.27;5.13;;;;;;;;;;10339249;28;20080;-64
2023/07/19 07:53:16;;;;;;;11.15;9.27;;;;;;;;;;10338718;28;20080;-64
2023/07/19 07:58:15;;;;;;;9.35;5.32;;;;;;;;;;10337114;28;20485;-64
2023/07/19 08:03:14;;;;;;;9.40;4.90;;;;;;;;;;10337625;28;20080;-64
2023/07/19 08:08:13;;;;;;;11.77;8.50;;;;;;;;;;10321804;28;20076;-64
2023/07/19 08:13:12;;;;;;;9.30;4.97;;;;;;;;;;10321296;28;20513;-65
2023/07/19 08:18:10;;;;;;;8.02;4.32;;;;;;;;;;10320040;28;20466;-65
2023/07/19 08:23:08;;;;;;;8.48;5.00;;;;;;;;;;10337143;28;20092;-64
2023/07/19 08:28:08;;;;;;;9.68;6.30;;;;;;;;;;10330332;28;20071;-65
2023/07/19 08:33:08;;;;;;;9.07;5.43;;;;;;;;;;10330614;28;20087;-64
2023/07/19 08:38:07;;;;;;;10.88;5.47;;;;;;;;;;10331871;28;20505;-65
2023/07/19 08:43:06;;;;;;;10.70;4.63;;;;;;;;;;10332583;28;20509;-65
2023/07/19 08:48:06;;;;;;;10.82;4.78;;;;;;;;;;10332362;28;20080;-65
2023/07/19 08:53:05;;;;;;;9.00;4.53;;;;;;;;;;10331990;28;20461;-65
2023/07/19 08:58:03;;;;;;;8.00;4.85;;;;;;;;;;10331038;28;20087;-65
2023/07/19 09:03:01;;;;;;;7.03;4.78;;;;;;;;;;10332951;28;20333;-65
2023/07/19 09:08:02;;;;;;;5.30;4.80;;;;;;;;;;10330511;28;20683;-65
2023/07/19 09:13:03;;;;;;;7.28;4.53;;;;;;;;;;10333113;28;20501;-64
2023/07/19 09:18:02;;;;;;;10.00;4.43;;;;;;;;;;10331917;28;20102;-64
2023/07/19 09:23:04;;;;;;;9.52;4.28;;;;;;;;;;10332125;28;20083;-64
2023/07/19 09:28:08;;;;;;;12.68;4.70;;;;;;;;;;10328566;28;20076;-64
2023/07/19 09:33:06;;;;;;;7.28;3.25;;;;;;;;;;10330594;28;20516;-64
2023/07/19 09:38:06;;;;;;;7.05;3.83;;;;;;;;;;10331634;28;20079;-65
2023/07/19 09:43:04;;;;;;;8.68;3.70;;;;;;;;;;10324905;28;20099;-64
2023/07/19 09:48:03;;;;;;;7.40;4.00;;;;;;;;;;10331285;28;20083;-64
2023/07/19 09:53:03;;;;;;;5.95;3.80;;;;;;;;;;10329954;28;20533;-65
2023/07/19 09:58:02;;;;;;;4.15;3.67;;;;;;;;;;10330811;28;20064;-65
2023/07/19 10:03:01;;;;;;;10.80;3.95;;;;;;;;;;10331524;28;20068;-65
2023/07/19 10:08:02;;;;;;;3.78;3.40;;;;;;;;;;10323253;28;20356;-64
2023/07/19 10:13:02;;;;;;;6.47;3.60;;;;;;;;;;10321854;28;20072;-65
2023/07/19 10:18:00;;;;;;;4.70;3.70;;;;;;;;;;10328492;28;20083;-64
2023/07/19 10:22:59;;;;;;;6.70;3.40;;;;;;;;;;10336263;28;20103;-63
2023/07/19 10:27:59;;;;;;;5.30;3.25;;;;;;;;;;10338343;28;20068;-64
2023/07/19 10:32:58;;;;;;;5.80;2.95;;;;;;;;;;10338366;28;20528;-65
2023/07/19 10:37:57;;;;;;;3.30;3.00;;;;;;;;;;10336407;28;20070;-64
2023/07/19 10:42:58;;;;;;;3.83;3.50;;;;;;;;;;10332825;28;20068;-64
2023/07/19 10:48:00;;;;;;;4.90;3.28;;;;;;;;;;10332558;28;20095;-64
2023/07/19 10:52:58;;;;;;;7.63;3.60;;;;;;;;;;10331459;28;20088;-64
2023/07/19 10:57:57;;;;;;;5.05;3.95;;;;;;;;;;10337851;28;20060;-64
2023/07/19 11:02:55;;;;;;;4.03;3.60;;;;;;;;;;10337216;28;20481;-65
2023/07/19 11:07:55;;;;;;;4.93;3.75;;;;;;;;;;10335706;28;20087;-65
2023/07/19 11:12:53;;;;;;;4.22;3.55;;;;;;;;;;10330896;28;20069;-65
2023/07/19 11:17:56;;;;;;;4.68;3.78;;;;;;;;;;10334481;28;20063;-65
2023/07/19 11:22:55;;;;;;;;;;;;;;;;;;10336384;28;20275;-65
2023/07/19 11:27:54;;;;;;;4.00;3.67;;;;;;;;;;10335006;28;19966;-65
2023/07/19 11:33:02;;;;;;;4.05;3.60;;;;;;;;;;10335397;28;20076;-65
2023/07/19 11:38:01;;;;;;;5.63;3.70;;;;;;;;;;10336818;28;20067;-64
2023/07/19 11:43:00;;;;;;;7.97;3.85;;;;;;;;;;10333097;28;20064;-64
2023/07/19 11:47:59;;;;;;;6.15;3.80;;;;;;;;;;10335250;28;20091;-64
2023/07/19 11:53:00;;;;;;;5.60;3.78;;;;;;;;;;10335052;28;20064;-63
2023/07/19 11:58:02;;;;;;;3.75;3.42;;;;;;;;;;10333463;28;20073;-64
2023/07/19 12:03:01;;;;;;;5.43;4.13;;;;;;;;;;10334042;28;20057;-63
2023/07/19 12:08:00;;;;;;;3.80;3.30;;;;;;;;;;10334575;28;20068;-63
2023/07/19 12:13:00;;;;;;;3.88;3.55;;;;;;;;;;10331371;28;20508;-64
2023/07/19 12:17:58;;;;;;;4.80;3.50;;;;;;;;;;10334287;28;20554;-63
2023/07/19 12:22:56;;;;;;;4.25;3.60;;;;;;;;;;10333135;28;20071;-64
2023/07/19 12:27:54;;;;;;;5.05;3.65;;;;;;;;;;10333573;28;20076;-64
2023/07/19 12:32:54;;;;;;;4.95;3.45;;;;;;;;;;10334436;28;20075;-64
2023/07/19 12:37:52;;;;;;;6.35;3.30;;;;;;;;;;10332839;28;20051;-64
2023/07/19 12:42:50;;;;;;;8.15;4.00;;;;;;;;;;10332103;28;20060;-64
2023/07/19 12:47:49;;;;;;;5.57;3.58;;;;;;;;;;10334722;28;20174;-64
2023/07/19 12:52:51;;;;;;;5.72;3.47;;;;;;;;;;10331454;28;20292;-64
2023/07/19 12:57:49;;;;;;;4.15;3.40;;;;;;;;;;10328160;28;20067;-64
2023/07/19 13:02:48;;;;;;;5.35;3.63;;;;;;;;;;10327671;28;20068;-64
2023/07/19 13:07:48;;;;;;;6.22;3.60;;;;;;;;;;10332137;28;20076;-64
2023/07/19 13:12:48;;;;;;;3.38;3.08;;;;;;;;;;10330185;28;20133;-63
2023/07/19 13:17:49;;;;;;;3.97;3.47;;;;;;;;;;10333329;28;20142;-64
2023/07/19 13:22:49;;;;;;;3.92;3.50;;;;;;;;;;10332403;28;20181;-64
2023/07/19 13:27:47;;;;;;;6.68;5.47;;;;;;;;;;10330658;28;20485;-64
2023/07/19 13:32:45;;;;;;;4.53;3.42;;;;;;;;;;10330995;28;20094;-64
2023/07/19 13:37:44;;;;;;;4.32;3.63;;;;;;;;;;10330580;28;20074;-64
2023/07/19 13:42:46;;;;;;;7.75;3.33;;;;;;;;;;10329107;28;20079;-64
2023/07/19 13:47:44;;;;;;;5.28;3.55;;;;;;;;;;10332010;28;20087;-64
2023/07/19 13:52:42;;;;;;;5.32;3.60;;;;;;;;;;10332425;28;20080;-64
2023/07/19 13:57:41;;;;;;;6.78;3.58;;;;;;;;;;10338289;28;20068;-64
2023/07/19 14:02:40;;;;;;;4.38;3.88;;;;;;;;;;10335265;28;20078;-64
2023/07/19 14:07:39;;;;;;;6.00;3.90;;;;;;;;;;10339523;28;20079;-64
2023/07/19 14:12:38;;;;;;;8.95;3.80;;;;;;;;;;10338339;28;20072;-64
2023/07/19 14:17:36;;;;;;;10.95;4.68;;;;;;;;;;10338547;28;20064;-64
2023/07/19 14:22:36;;;;;;;5.28;3.50;;;;;;;;;;10339108;28;20071;-64
2023/07/19 14:27:35;;;;;;;3.88;3.58;;;;;;;;;;10337313;28;20086;-64
2023/07/19 14:32:33;;;;;;;8.70;3.88;;;;;;;;;;10339614;28;20072;-64
2023/07/19 14:37:32;;;;;;;7.78;3.70;;;;;;;;;;10336963;28;20475;-64
2023/07/19 14:42:32;;;;;;;6.28;3.92;;;;;;;;;;10337075;28;20072;-64
2023/07/19 14:47:30;;;;;;;4.55;2.97;;;;;;;;;;10328010;28;20103;-64
2023/07/19 14:52:28;;;;;;;4.47;3.53;;;;;;;;;;10335774;28;20527;-65
2023/07/19 14:57:26;;;;;;;4.75;3.33;;;;;;;;;;10339245;28;20084;-64
2023/07/19 15:02:26;;;;;;;7.20;6.30;;;;;;;;;;10336384;28;20068;-64
2023/07/19 15:07:27;;;;;;;6.95;3.50;;;;;;;;;;10335657;28;20084;-63
2023/07/19 15:12:26;;;;;;;5.57;4.07;;;;;;;;;;10336408;28;20520;-64
2023/07/19 15:17:25;;;;;;;7.53;3.88;;;;;;;;;;10334729;28;20071;-64
2023/07/19 15:22:24;;;;;;;6.10;3.38;;;;;;;;;;10332566;28;20064;-64
2023/07/19 15:27:22;;;;;;;5.65;4.82;;;;;;;;;;10334343;28;20952;-64
2023/07/19 15:32:21;;;;;;;5.43;3.80;;;;;;;;;;10343275;28;20056;-64
2023/07/19 15:37:20;;;;;;;3.45;3.15;;;;;;;;;;10331341;28;20068;-64
2023/07/19 15:42:19;;;;;;;4.20;3.20;;;;;;;;;;10337362;28;20110;-63
2023/07/19 15:47:17;;;;;;;5.97;4.75;;;;;;;;;;10337771;28;20097;-64
2023/07/19 15:52:16;;;;;;;4.65;3.97;;;;;;;;;;10336995;28;20076;-65
2023/07/19 15:57:16;;;;;;;5.70;4.15;;;;;;;;;;10336002;28;20486;-65
2023/07/19 16:02:15;;;;;;;8.55;3.95;;;;;;;;;;10335589;28;20064;-65
2023/07/19 16:07:14;;;;;;;7.68;3.72;;;;;;;;;;10331954;28;20077;-64
2023/07/19 16:12:12;;;;;;;8.32;4.22;;;;;;;;;;10334005;28;20470;-64
2023/07/19 16:17:12;;;;;;;6.85;4.05;;;;;;;;;;10343781;28;20060;-64
2023/07/19 16:22:10;;;;;;;5.50;4.25;;;;;;;;;;10334273;28;20507;-65
2023/07/19 16:27:09;;;;;;;9.93;4.72;;;;;;;;;;10333892;28;20610;-65
2023/07/19 16:32:07;;;;;;;7.85;4.45;;;;;;;;;;10341493;28;20072;-65
2023/07/19 16:37:07;;;;;;;8.90;4.97;;;;;;;;;;10334476;28;20060;-64
2023/07/19 16:42:06;;;;;;;8.93;5.85;;;;;;;;;;10331018;28;20068;-65
2023/07/19 16:47:04;;;;;;;5.95;5.35;;;;;;;;;;10335807;28;20080;-65
2023/07/19 16:52:02;;;;;;;7.97;5.70;;;;;;;;;;10340029;28;20060;-62
2023/07/19 16:57:02;;;;;;;8.95;6.22;;;;;;;;;;10340381;28;20071;-64
2023/07/19 17:02:00;;;;;;;9.90;4.28;;;;;;;;;;10336398;28;20066;-63
2023/07/19 17:06:59;;;;;;;8.73;4.18;;;;;;;;;;10342294;28;20071;-64
2023/07/19 17:11:57;;;;;;;7.28;5.30;;;;;;;;;;10332330;28;20064;-64
2023/07/19 17:16:57;;;;;;;7.00;4.65;;;;;;;;;;10338177;28;20480;-64
2023/07/19 17:22:10;;;;;;;6.85;3.92;;;;;;;;;;10309334;28;20079;-64
2023/07/19 17:27:08;;;;;;;8.80;5.55;;;;;;;;;;10340281;28;20083;-63
2023/07/19 17:32:09;;;;;;;10.05;5.10;;;;;;;;;;10342624;28;20068;-64
2023/07/19 17:37:07;;;;;;;6.05;4.55;;;;;;;;;;10334825;28;20072;-63
2023/07/19 17:42:05;;;;;;;9.70;4.72;;;;;;;;;;10324954;28;20076;-64
2023/07/19 17:47:04;;;;;;;16.20;5.30;;;;;;;;;;10341389;28;20083;-64
2023/07/19 17:52:05;;;;;;;8.60;5.28;;;;;;;;;;10336469;28;20051;-64
2023/07/19 17:57:06;;;;;;;8.70;5.18;;;;;;;;;;10335171;28;20071;-64
2023/07/19 18:02:04;;;;;;;9.55;5.30;;;;;;;;;;10331946;28;20497;-64
2023/07/19 18:07:02;;;;;;;12.98;6.30;;;;;;;;;;10337208;28;20075;-64
2023/07/19 18:12:02;;;;;;;9.73;5.40;;;;;;;;;;10337820;28;20076;-65
2023/07/19 18:17:00;;;;;;;6.63;5.18;;;;;;;;;;10336980;28;20063;-65
2023/07/19 18:22:05;;;;;;;13.30;6.00;;;;;;;;;;10329661;28;20071;-64
2023/07/19 18:27:07;;;;;;;12.38;5.28;;;;;;;;;;10333176;28;20713;-65
2023/07/19 18:32:05;;;;;;;5.72;3.70;;;;;;;;;;10331496;28;20080;-64
2023/07/19 18:37:04;;;;;;;10.73;5.07;;;;;;;;;;10329097;28;20071;-64
2023/07/19 18:42:07;;;;;;;8.70;5.97;;;;;;;;;;10335129;28;20090;-64
2023/07/19 18:47:05;;;;;;;13.27;4.50;;;;;;;;;;10344266;28;20080;-64
2023/07/19 18:52:03;;;;;;;9.25;4.60;;;;;;;;;;10346672;28;20135;-64
2023/07/19 18:57:02;;;;;;;10.20;4.45;;;;;;;;;;10344360;28;20090;-64
2023/07/19 19:02:01;;;;;;;10.93;4.65;;;;;;;;;;10329493;28;20135;-64
2023/07/19 19:06:59;;;;;;;8.70;4.57;;;;;;;;;;10340400;28;20068;-64
2023/07/19 19:11:58;;;;;;;9.35;4.30;;;;;;;;;;10339399;28;20079;-64
2023/07/19 19:16:56;;;;;;;7.65;4.35;;;;;;;;;;10337745;28;20141;-64
2023/07/19 19:21:56;;;;;;;12.23;4.35;;;;;;;;;;10338284;28;20523;-64
2023/07/19 19:26:54;;;;;;;5.85;4.35;;;;;;;;;;10342380;28;20064;-64
2023/07/19 19:31:52;;;;;;;4.78;4.18;;;;;;;;;;10341201;28;20079;-65
2023/07/19 19:36:51;;;;;;;7.85;3.83;;;;;;;;;;10339833;28;20072;-64
2023/07/19 19:41:50;;;;;;;7.00;3.83;;;;;;;;;;10349066;28;20068;-65
2023/07/19 19:46:48;;;;;;;5.47;4.93;;;;;;;;;;10335429;28;20075;-65
2023/07/19 19:51:47;;;;;;;10.20;5.15;;;;;;;;;;10338021;28;20076;-65
2023/07/19 19:56:45;;;;;;;5.20;4.20;;;;;;;;;;10336402;28;20493;-65
2023/07/19 20:01:47;;;;;;;12.70;5.68;;;;;;;;;;10337992;28;20493;-64
2023/07/19 20:06:46;;;;;;;4.97;4.22;;;;;;;;;;10343661;28;20080;-64
2023/07/19 20:11:44;;;;;;;4.15;3.78;;;;;;;;;;10338851;28;20067;-63
2023/07/19 20:16:44;;;;;;;7.88;4.32;;;;;;;;;;10334991;28;20505;-64
2023/07/19 20:21:44;;;;;;;4.82;4.38;;;;;;;;;;10339599;28;20064;-64
2023/07/19 20:26:42;;;;;;;7.28;4.63;;;;;;;;;;10336953;28;20484;-63
2023/07/19 20:31:40;;;;;;;4.68;4.28;;;;;;;;;;10335772;28;20086;-64
2023/07/19 20:36:42;;;;;;;6.28;4.43;;;;;;;;;;10336417;28;20099;-64
2023/07/19 20:41:44;;;;;;;11.48;4.88;;;;;;;;;;10332964;28;20082;-64
2023/07/19 20:46:43;;;;;;;9.23;4.50;;;;;;;;;;10338494;28;20068;-64
2023/07/19 20:51:43;;;;;;;5.43;3.65;;;;;;;;;;10336536;28;20071;-64
2023/07/19 20:56:42;;;;;;;4.47;4.07;;;;;;;;;;10336844;28;20520;-62
2023/07/19 21:01:41;;;;;;;7.50;4.30;;;;;;;;;;10335772;28;20063;-63
2023/07/19 21:06:39;;;;;;;8.50;4.25;;;;;;;;;;10334486;28;20078;-64
2023/07/19 21:11:38;;;;;;;10.32;4.00;;;;;;;;;;10336465;28;20070;-65
2023/07/19 21:16:36;;;;;;;4.43;4.03;;;;;;;;;;10329319;28;20068;-64
2023/07/19 21:21:36;;;;;;;4.53;4.10;;;;;;;;;;10333475;28;20083;-64
2023/07/19 21:26:34;;;;;;;6.38;3.83;;;;;;;;;;10334125;28;20063;-63
2023/07/19 21:31:35;;;;;;;7.70;4.00;;;;;;;;;;10318901;28;20083;-64
2023/07/19 21:36:33;;;;;;;9.65;4.47;;;;;;;;;;10331473;28;20087;-65
2023/07/19 21:41:33;;;;;;;7.22;3.58;;;;;;;;;;10332450;28;20278;-65
2023/07/19 21:46:32;;;;;;;8.32;4.07;;;;;;;;;;10330174;28;20072;-64
2023/07/19 21:51:30;;;;;;;7.38;3.88;;;;;;;;;;10332804;28;20083;-64
2023/07/19 21:56:29;;;;;;;7.43;4.32;;;;;;;;;;10335304;28;20495;-65
2023/07/19 22:01:28;;;;;;;7.00;4.32;;;;;;;;;;10330887;28;20529;-65
2023/07/19 22:06:26;;;;;;;4.53;4.07;;;;;;;;;;10332171;28;20500;-64
2023/07/19 22:11:27;;;;;;;8.40;4.13;;;;;;;;;;10331177;28;20068;-64
2023/07/19 22:16:25;;;;;;;6.57;3.90;;;;;;;;;;10335402;28;20090;-64
2023/07/19 22:21:25;;;;;;;9.48;4.22;;;;;;;;;;10342971;28;20068;-64
2023/07/19 22:26:23;;;;;;;4.53;4.13;;;;;;;;;;10338756;28;20090;-65
2023/07/19 22:31:22;;;;;;;5.10;4.60;;;;;;;;;;10341742;28;20082;-64
2023/07/19 22:36:21;;;;;;;4.25;3.85;;;;;;;;;;10339075;28;20154;-64
2023/07/19 22:41:21;;;;;;;5.88;4.10;;;;;;;;;;10340200;28;20083;-64
2023/07/19 22:46:19;;;;;;;4.53;4.03;;;;;;;;;;10342467;28;20067;-64
2023/07/19 22:51:18;;;;;;;5.05;3.92;;;;;;;;;;10339650;28;20087;-64
2023/07/19 22:56:16;;;;;;;9.25;4.10;;;;;;;;;;10341831;28;20079;-64
2023/07/19 23:01:16;;;;;;;4.30;3.72;;;;;;;;;;10335580;28;20071;-64
2023/07/19 23:06:14;;;;;;;5.70;4.03;;;;;;;;;;10340122;28;20044;-65
2023/07/19 23:11:14;;;;;;;4.10;3.70;;;;;;;;;;10338040;28;20068;-65
2023/07/19 23:16:12;;;;;;;6.82;4.22;;;;;;;;;;10340300;28;20064;-65
2023/07/19 23:21:11;;;;;;;5.47;4.18;;;;;;;;;;10340995;28;20068;-65
2023/07/19 23:26:09;;;;;;;4.70;3.88;;;;;;;;;;10336662;28;20535;-65
2023/07/19 23:31:08;;;;;;;5.95;4.47;;;;;;;;;;10339231;28;20075;-63
2023/07/19 23:36:07;;;;;;;6.28;4.45;;;;;;;;;;10338091;28;20109;-64
2023/07/19 23:41:07;;;;;;;14.93;5.15;;;;;;;;;;10336323;28;20063;-64
2023/07/19 23:46:10;;;;;;;55.55;11.80;;;;;;;;;;10337675;28;20546;-64
2023/07/19 23:51:08;;;;;;;57.95;11.13;;;;;;;;;;10341026;28;20504;-64
2023/07/19 23:56:07;;;;;;;70.75;11.45;;;;;;;;;;10337592;28;20079;-64
